Iranshahr, Iran
Current Conditions -  °F | °C
As of 5:00 PM on Thursday 18 Dec 2014 (Local Time) from OIZI Reporting Station
Clear Clear  
Wind Chill: 18°   Ceiling: Unl
Heat Index: 18°   Visibility: 5mi
Dew Point: -2°   Wind: 7mph
Humidity: 26%   Direction: 220°SW
Pressure: 30.15"   Gusts: NA
Location:  27.21°N, 60.69°E
Report Text: OIZI 181400Z 22006KT 8000 SKC 18/M02 Q1021
Loading
Personal Weather Stations






























Interactive Weather Map New forecast layout! Learn more

10-Day Weather Forecast

Advertisements
Track Severe Weather on mobile